createdAt,value
2018-07-23T00:00:41.695Z,21.37
2018-07-23T00:03:11.059Z,21.00
2018-07-23T00:05:40.426Z,21.77
2018-07-23T00:08:09.819Z,19.87
2018-07-23T00:10:39.193Z,21.07
2018-07-23T00:13:08.552Z,19.60
2018-07-23T00:15:37.924Z,19.90
2018-07-23T00:18:08.562Z,20.97
2018-07-23T00:20:37.936Z,23.13
2018-07-23T00:23:07.564Z,20.57
2018-07-23T00:25:36.972Z,18.50
2018-07-23T00:28:06.451Z,17.17
2018-07-23T00:30:35.807Z,19.37
2018-07-23T00:33:05.171Z,26.27
2018-07-23T00:35:34.548Z,18.80
2018-07-23T00:38:03.915Z,24.67
2018-07-23T00:40:33.288Z,24.60
2018-07-23T00:43:02.662Z,20.27
2018-07-23T00:45:32.036Z,18.33
2018-07-23T00:48:01.143Z,23.73
2018-07-23T00:50:30.520Z,17.17
2018-07-23T00:52:59.884Z,22.43
2018-07-23T00:55:29.720Z,23.03
2018-07-23T00:57:59.083Z,22.10
2018-07-23T01:00:28.463Z,30.37
2018-07-23T01:03:01.904Z,19.63
2018-07-23T01:05:31.300Z,17.43
2018-07-23T01:08:00.643Z,19.37
2018-07-23T01:10:29.753Z,21.07
2018-07-23T01:12:59.148Z,22.93
2018-07-23T01:15:28.247Z,19.60
2018-07-23T01:17:57.619Z,19.57
2018-07-23T01:20:26.979Z,23.55
2018-07-23T01:22:56.344Z,22.30
2018-07-23T01:25:25.451Z,24.77
2018-07-23T01:27:54.859Z,20.10
2018-07-23T01:30:24.234Z,20.73
2018-07-23T01:32:53.628Z,20.70
2018-07-23T01:35:22.980Z,21.13
2018-07-23T01:37:52.347Z,21.40
2018-07-23T01:40:21.715Z,17.42
2018-07-23T01:42:51.092Z,19.27
2018-07-23T01:45:20.455Z,23.43
2018-07-23T01:47:49.822Z,20.40
2018-07-23T01:50:19.192Z,24.30
2018-07-23T01:52:48.555Z,21.90
2018-07-23T01:55:17.662Z,20.27
2018-07-23T01:57:47.043Z,23.10
2018-07-23T02:00:16.450Z,25.03
2018-07-23T02:02:45.849Z,22.77
2018-07-23T02:05:14.963Z,28.00
2018-07-23T02:07:44.361Z,22.87
2018-07-23T02:10:13.607Z,20.70
2018-07-23T02:12:42.995Z,24.07
2018-07-23T02:15:12.391Z,23.50
2018-07-23T02:17:41.793Z,20.87
2018-07-23T02:20:11.179Z,27.13
2018-07-23T02:22:40.604Z,26.37
2018-07-23T02:25:09.984Z,22.37
2018-07-23T02:27:39.376Z,26.60
2018-07-23T02:30:08.885Z,24.50
2018-07-23T02:32:38.292Z,28.60
2018-07-23T02:35:07.681Z,23.73
2018-07-23T02:37:37.088Z,24.00
2018-07-23T02:40:06.605Z,22.27
2018-07-23T02:42:36.011Z,28.20
2018-07-23T02:45:05.452Z,23.70
2018-07-23T02:47:34.844Z,27.93
2018-07-23T02:50:04.267Z,21.90
2018-07-23T02:52:33.696Z,26.07
2018-07-23T02:55:02.874Z,19.80
2018-07-23T02:57:32.300Z,24.63
2018-07-23T03:00:01.723Z,26.33
2018-07-23T03:02:31.348Z,27.10
2018-07-23T03:05:00.749Z,28.43
2018-07-23T03:07:30.145Z,25.73
2018-07-23T03:09:59.539Z,23.90
2018-07-23T03:12:28.918Z,22.60
2018-07-23T03:14:58.336Z,27.27
2018-07-23T03:17:27.744Z,23.43
2018-07-23T03:19:57.167Z,23.87
2018-07-23T03:22:26.600Z,24.63
2018-07-23T03:24:56.011Z,22.17
2018-07-23T03:27:25.452Z,21.52
2018-07-23T03:29:54.851Z,20.87
2018-07-23T03:32:24.268Z,22.60
2018-07-23T03:34:53.650Z,25.13
2018-07-23T03:37:23.052Z,26.00
2018-07-23T03:39:52.459Z,26.43
2018-07-23T03:42:21.881Z,22.98
2018-07-23T03:44:51.279Z,23.47
2018-07-23T03:47:20.671Z,24.27
2018-07-23T03:49:50.081Z,25.03
2018-07-23T03:52:19.475Z,27.23
2018-07-23T03:54:48.884Z,22.93
2018-07-23T03:57:18.309Z,21.40
2018-07-23T03:59:47.744Z,28.13
2018-07-23T04:02:17.136Z,26.97
2018-07-23T04:04:46.557Z,27.03
2018-07-23T04:07:15.687Z,25.40
2018-07-23T04:09:45.559Z,25.83
2018-07-23T04:12:14.958Z,31.23
2018-07-23T04:14:44.358Z,29.93
2018-07-23T04:17:13.756Z,24.77
2018-07-23T04:19:43.156Z,26.43
2018-07-23T04:22:12.575Z,23.57
2018-07-23T04:24:41.711Z,28.30
2018-07-23T04:27:11.113Z,27.33
2018-07-23T04:29:40.528Z,24.53
2018-07-23T04:32:09.928Z,24.60
2018-07-23T04:34:39.353Z,23.23
2018-07-23T04:37:08.759Z,26.63
2018-07-23T04:39:38.168Z,28.17
2018-07-23T04:42:09.279Z,29.83
2018-07-23T04:44:38.691Z,32.07
2018-07-23T04:47:08.112Z,27.10
2018-07-23T04:49:37.536Z,28.17
2018-07-23T04:52:06.972Z,29.60
2018-07-23T04:54:36.424Z,29.70
2018-07-23T04:57:05.825Z,30.43
2018-07-23T04:59:35.228Z,35.07
2018-07-23T05:02:04.640Z,32.73
2018-07-23T05:04:34.036Z,33.87
2018-07-23T05:07:03.449Z,29.33
2018-07-23T05:09:32.587Z,34.90
2018-07-23T05:12:02.011Z,31.97
2018-07-23T05:14:31.441Z,32.53
2018-07-23T05:17:00.862Z,38.07
2018-07-23T05:19:30.274Z,28.90
2018-07-23T05:21:59.677Z,32.50
2018-07-23T05:24:29.099Z,34.87
2018-07-23T05:26:58.567Z,35.73
2018-07-23T05:29:27.982Z,31.30
2018-07-23T05:31:57.409Z,32.40
2018-07-23T05:34:26.812Z,30.47
2018-07-23T05:36:56.239Z,37.63
2018-07-23T05:39:25.636Z,36.07
2018-07-23T05:41:55.067Z,30.93
2018-07-23T05:44:24.463Z,34.53
2018-07-23T05:46:53.867Z,37.37
2018-07-23T05:49:23.269Z,37.03
2018-07-23T05:51:52.670Z,37.03
2018-07-23T05:54:22.082Z,38.48
2018-07-23T05:56:51.484Z,35.03
2018-07-23T05:59:21.027Z,39.70
2018-07-23T06:01:50.428Z,36.13
2018-07-23T06:04:19.826Z,43.50
2018-07-23T06:06:49.264Z,34.90
2018-07-23T06:09:18.334Z,41.97
2018-07-23T06:11:47.735Z,42.63
2018-07-23T06:14:17.121Z,44.23
2018-07-23T06:16:46.547Z,39.20
2018-07-23T06:19:15.942Z,44.83
2018-07-23T06:21:45.371Z,40.50
2018-07-23T06:24:14.784Z,41.92
2018-07-23T06:26:44.212Z,36.70
2018-07-23T06:29:13.611Z,37.43
2018-07-23T06:31:43.030Z,38.83
2018-07-23T06:34:12.411Z,37.23
2018-07-23T06:36:41.833Z,35.43
2018-07-23T06:39:11.810Z,42.48
2018-07-23T06:41:41.589Z,40.67
2018-07-23T06:44:10.992Z,39.67
2018-07-23T06:46:40.937Z,40.30
2018-07-23T06:49:10.276Z,38.80
2018-07-23T06:51:39.408Z,37.77
2018-07-23T06:54:09.347Z,38.13
2018-07-23T06:56:39.016Z,42.20
2018-07-23T06:59:08.425Z,39.47
2018-07-23T07:01:37.839Z,38.67
2018-07-23T07:04:07.236Z,38.57
2018-07-23T07:06:36.642Z,41.23
2018-07-23T07:09:09.510Z,40.67
2018-07-23T07:11:39.036Z,39.43
2018-07-23T07:14:08.927Z,39.80
2018-07-23T07:16:38.319Z,34.57
2018-07-23T07:19:07.729Z,39.43
2018-07-23T07:21:37.128Z,34.53
2018-07-23T07:24:06.556Z,34.30
2018-07-23T07:26:35.970Z,34.63
2018-07-23T07:29:05.376Z,29.93
2018-07-23T07:31:34.776Z,28.07
2018-07-23T07:34:04.216Z,23.37
2018-07-23T07:36:33.603Z,26.63
2018-07-23T07:39:02.996Z,23.20
2018-07-23T07:41:32.466Z,25.47
2018-07-23T07:44:01.861Z,27.40
2018-07-23T07:46:31.273Z,24.43
2018-07-23T07:49:00.639Z,25.87
2018-07-23T07:51:29.785Z,21.07
2018-07-23T07:53:59.188Z,22.00
2018-07-23T07:56:28.559Z,23.83
2018-07-23T07:58:57.975Z,22.03
2018-07-23T08:01:27.384Z,26.53
2018-07-23T08:03:56.776Z,20.57
2018-07-23T08:06:26.163Z,22.73
2018-07-23T08:08:55.569Z,26.03
2018-07-23T08:11:24.988Z,24.43
2018-07-23T08:13:54.404Z,22.87
2018-07-23T08:16:23.787Z,23.23
2018-07-23T08:18:53.250Z,21.23
2018-07-23T08:21:22.636Z,21.73
2018-07-23T08:23:52.045Z,26.37
2018-07-23T08:26:21.441Z,20.32
2018-07-23T08:28:50.851Z,21.60
2018-07-23T08:31:20.349Z,21.90
2018-07-23T08:33:49.761Z,19.07
2018-07-23T08:36:19.171Z,19.62
2018-07-23T08:38:48.322Z,18.93
2018-07-23T08:41:17.721Z,18.07
2018-07-23T08:43:47.117Z,21.83
2018-07-23T08:46:16.512Z,18.80
2018-07-23T08:48:45.904Z,20.07
2018-07-23T08:51:15.322Z,19.80
2018-07-23T08:53:44.741Z,20.23
2018-07-23T08:56:14.172Z,20.35
2018-07-23T08:58:43.532Z,19.73
2018-07-23T09:01:12.930Z,18.40
2018-07-23T09:03:42.317Z,16.73
2018-07-23T09:06:11.724Z,16.32
2018-07-23T09:08:41.169Z,18.17
2018-07-23T09:11:10.536Z,17.17
2018-07-23T09:13:39.976Z,16.83
2018-07-23T09:16:09.476Z,17.83
2018-07-23T09:18:38.864Z,16.43
2018-07-23T09:21:08.256Z,14.10
2018-07-23T09:23:37.729Z,16.03
2018-07-23T09:26:07.181Z,15.87
2018-07-23T09:28:36.564Z,12.90
2018-07-23T09:31:05.991Z,14.00
2018-07-23T09:33:35.377Z,16.07
2018-07-23T09:36:04.782Z,13.93
2018-07-23T09:38:34.178Z,13.30
2018-07-23T09:41:03.594Z,13.97
2018-07-23T09:43:33.003Z,16.03
2018-07-23T09:46:02.403Z,13.50
2018-07-23T09:48:31.795Z,12.57
2018-07-23T09:51:01.201Z,13.13
2018-07-23T09:53:30.595Z,13.20
2018-07-23T09:56:00.025Z,14.20
2018-07-23T09:58:29.453Z,14.70
2018-07-23T10:01:02.767Z,14.97
2018-07-23T10:03:31.326Z,14.40
2018-07-23T10:06:00.611Z,15.17
2018-07-23T10:08:30.073Z,15.93
2018-07-23T10:10:59.485Z,14.03
2018-07-23T10:13:28.857Z,15.93
2018-07-23T10:15:58.264Z,14.00
2018-07-23T10:18:27.656Z,14.53
2018-07-23T10:20:57.072Z,13.00
2018-07-23T10:23:26.472Z,13.20
2018-07-23T10:25:55.884Z,10.60
2018-07-23T10:28:25.296Z,9.87
2018-07-23T10:30:54.689Z,11.90
2018-07-23T10:33:24.093Z,11.67
2018-07-23T10:35:53.500Z,10.93
2018-07-23T10:38:22.907Z,11.20
2018-07-23T10:40:52.283Z,10.33
2018-07-23T10:43:21.683Z,9.70
2018-07-23T10:45:51.103Z,11.80
2018-07-23T10:48:20.500Z,11.53
2018-07-23T10:50:49.917Z,11.33
2018-07-23T10:53:19.315Z,10.63
2018-07-23T10:55:48.724Z,8.97
2018-07-23T10:58:18.126Z,11.23
2018-07-23T11:00:47.529Z,9.63
2018-07-23T11:03:16.942Z,8.70
2018-07-23T11:05:46.383Z,10.57
2018-07-23T11:08:15.544Z,10.58
2018-07-23T11:10:44.952Z,8.50
2018-07-23T11:13:14.363Z,9.23
2018-07-23T11:15:43.773Z,11.33
2018-07-23T11:18:13.164Z,8.87
2018-07-23T11:20:42.561Z,8.80
2018-07-23T11:23:11.993Z,11.60
2018-07-23T11:25:41.393Z,13.93
2018-07-23T11:28:10.826Z,9.30
2018-07-23T11:30:40.227Z,9.23
2018-07-23T11:33:09.628Z,9.80
2018-07-23T11:35:39.030Z,10.40
2018-07-23T11:38:09.262Z,11.03
2018-07-23T11:40:38.652Z,11.27
2018-07-23T11:43:08.076Z,8.43
2018-07-23T11:45:37.469Z,7.67
2018-07-23T11:48:06.921Z,9.00
2018-07-23T11:50:36.327Z,8.00
2018-07-23T11:53:05.729Z,6.60
2018-07-23T11:55:35.136Z,7.97
2018-07-23T11:58:04.287Z,8.00
2018-07-23T12:00:33.681Z,8.20
2018-07-23T12:03:03.109Z,8.10
2018-07-23T12:05:32.517Z,10.90
2018-07-23T12:08:01.949Z,11.83
2018-07-23T12:10:31.365Z,7.75
2018-07-23T12:13:00.767Z,9.25
2018-07-23T12:15:30.164Z,7.60
2018-07-23T12:17:59.771Z,7.42
2018-07-23T12:20:29.155Z,8.93
2018-07-23T12:22:58.565Z,9.60
2018-07-23T12:25:27.702Z,7.80
2018-07-23T12:27:57.122Z,8.93
2018-07-23T12:30:26.543Z,7.10
2018-07-23T12:32:56.011Z,6.87
2018-07-23T12:35:25.481Z,7.28
2018-07-23T12:37:54.930Z,7.15
2018-07-23T12:40:24.711Z,7.67
2018-07-23T12:42:54.107Z,6.42
2018-07-23T12:45:23.503Z,7.33
2018-07-23T12:47:52.892Z,7.05
2018-07-23T12:50:22.301Z,6.72
2018-07-23T12:52:51.414Z,8.48
2018-07-23T12:55:20.814Z,6.08
2018-07-23T12:57:50.199Z,6.42
2018-07-23T13:00:19.339Z,6.20
2018-07-23T13:02:48.729Z,5.97
2018-07-23T13:05:18.144Z,6.72
2018-07-23T13:07:47.540Z,7.97
2018-07-23T13:10:16.950Z,6.17
2018-07-23T13:12:46.331Z,5.72
2018-07-23T13:15:15.752Z,7.50
2018-07-23T13:17:45.145Z,6.25
2018-07-23T13:20:14.544Z,6.10
2018-07-23T13:22:43.956Z,7.15
2018-07-23T13:25:13.360Z,6.17
2018-07-23T13:27:42.762Z,6.08
2018-07-23T13:30:12.157Z,6.30
2018-07-23T13:32:41.854Z,5.72
2018-07-23T13:35:11.272Z,5.80
2018-07-23T13:37:40.952Z,6.90
2018-07-23T13:40:10.486Z,6.87
2018-07-23T13:42:39.872Z,6.35
2018-07-23T13:45:09.288Z,6.08
2018-07-23T13:47:38.688Z,7.05
2018-07-23T13:50:09.391Z,7.10
2018-07-23T13:52:38.799Z,6.62
2018-07-23T13:55:08.237Z,8.40
2018-07-23T13:57:37.615Z,5.70
2018-07-23T14:00:07.827Z,5.67
2018-07-23T14:02:37.227Z,5.80
2018-07-23T14:05:06.762Z,6.22
2018-07-23T14:07:36.148Z,6.97
2018-07-23T14:10:06.028Z,5.90
2018-07-23T14:12:35.156Z,5.28
2018-07-23T14:15:04.850Z,8.60
2018-07-23T14:17:34.179Z,6.85
2018-07-23T14:20:03.587Z,6.42
2018-07-23T14:22:32.954Z,6.12
2018-07-23T14:25:02.352Z,6.30
2018-07-23T14:27:31.740Z,8.50
2018-07-23T14:30:00.888Z,8.53
2018-07-23T14:32:30.293Z,8.20
2018-07-23T14:34:59.704Z,9.38
2018-07-23T14:37:29.093Z,8.98
2018-07-23T14:39:58.517Z,10.05
2018-07-23T14:42:27.921Z,8.23
2018-07-23T14:44:57.333Z,12.37
2018-07-23T14:47:26.745Z,9.53
2018-07-23T14:49:56.191Z,10.08
2018-07-23T14:52:25.596Z,8.00
2018-07-23T14:54:54.992Z,11.15
2018-07-23T14:57:24.407Z,8.03
2018-07-23T14:59:53.825Z,7.55
2018-07-23T15:02:23.219Z,7.67
2018-07-23T15:04:52.649Z,11.28
2018-07-23T15:07:22.049Z,7.80
2018-07-23T15:09:51.439Z,9.10
2018-07-23T15:12:20.831Z,8.00
2018-07-23T15:14:50.230Z,8.28
2018-07-23T15:17:19.626Z,8.55
2018-07-23T15:19:49.044Z,8.75
2018-07-23T15:22:18.469Z,8.18
2018-07-23T15:24:47.855Z,8.10
2018-07-23T15:27:17.306Z,8.13
2018-07-23T15:29:46.673Z,8.30
2018-07-23T15:32:16.075Z,8.85
2018-07-23T15:34:45.467Z,9.53
2018-07-23T15:37:14.863Z,8.98
2018-07-23T15:39:44.240Z,7.80
2018-07-23T15:42:13.687Z,9.00
2018-07-23T15:44:43.453Z,9.10
2018-07-23T15:47:12.932Z,8.83
2018-07-23T15:49:42.347Z,10.90
2018-07-23T15:52:11.752Z,8.35
2018-07-23T15:54:41.151Z,8.33
2018-07-23T15:57:10.531Z,9.68
2018-07-23T15:59:39.916Z,7.67
2018-07-23T16:02:09.532Z,10.50
2018-07-23T16:04:38.663Z,8.10
2018-07-23T16:07:08.050Z,9.13
2018-07-23T16:09:37.427Z,7.37
2018-07-23T16:12:06.871Z,7.45
2018-07-23T16:14:36.258Z,8.85
2018-07-23T16:17:05.669Z,8.55
2018-07-23T16:19:35.065Z,8.23
2018-07-23T16:22:04.504Z,7.12
2018-07-23T16:24:33.843Z,6.90
2018-07-23T16:27:02.982Z,9.95
2018-07-23T16:29:32.353Z,7.33
2018-07-23T16:32:01.695Z,8.40
2018-07-23T16:34:31.107Z,9.55
2018-07-23T16:37:00.480Z,8.73
2018-07-23T16:39:29.839Z,8.50
2018-07-23T16:41:59.230Z,9.40
2018-07-23T16:44:28.603Z,7.95
2018-07-23T16:46:58.026Z,7.12
2018-07-23T16:49:27.376Z,8.65
2018-07-23T16:51:56.983Z,6.65
2018-07-23T16:54:26.381Z,6.97
2018-07-23T16:56:55.788Z,12.10
2018-07-23T16:59:25.206Z,6.97
2018-07-23T17:01:54.580Z,7.35
2018-07-23T17:04:23.730Z,8.40
2018-07-23T17:06:53.158Z,9.00
2018-07-23T17:09:22.499Z,9.50
2018-07-23T17:11:51.885Z,7.47
2018-07-23T17:14:21.091Z,7.87
2018-07-23T17:16:50.500Z,7.05
2018-07-23T17:19:19.884Z,8.88
2018-07-23T17:21:49.018Z,6.62
2018-07-23T17:24:18.395Z,10.70
2018-07-23T17:26:47.763Z,7.42
2018-07-23T17:29:16.890Z,8.75
2018-07-23T17:31:46.335Z,7.28
2018-07-23T17:34:15.704Z,7.43
2018-07-23T17:36:45.899Z,7.12
2018-07-23T17:39:15.019Z,9.88
2018-07-23T17:41:44.416Z,7.15
2018-07-23T17:44:13.799Z,7.17
2018-07-23T17:46:43.176Z,7.20
2018-07-23T17:49:12.566Z,7.43
2018-07-23T17:51:41.940Z,7.28
2018-07-23T17:54:11.604Z,8.58
2018-07-23T17:56:40.715Z,6.58
2018-07-23T17:59:10.100Z,9.55
2018-07-23T18:01:39.238Z,7.00
2018-07-23T18:04:09.352Z,8.20
2018-07-23T18:06:38.835Z,7.22
2018-07-23T18:09:10.811Z,8.05
2018-07-23T18:11:40.223Z,6.58
2018-07-23T18:14:09.997Z,6.85
2018-07-23T18:16:39.238Z,7.40
2018-07-23T18:19:08.654Z,9.05
2018-07-23T18:21:38.053Z,8.23
2018-07-23T18:24:07.509Z,6.75
2018-07-23T18:26:36.686Z,6.45
2018-07-23T18:29:06.128Z,8.10
2018-07-23T18:31:35.510Z,9.50
2018-07-23T18:34:04.916Z,7.10
2018-07-23T18:36:34.343Z,7.08
2018-07-23T18:39:03.784Z,7.10
2018-07-23T18:41:33.175Z,6.53
2018-07-23T18:44:02.573Z,10.13
2018-07-23T18:46:31.992Z,7.15
2018-07-23T18:49:44.899Z,7.30
2018-07-23T18:52:14.900Z,6.92
2018-07-23T18:54:45.750Z,7.20
2018-07-23T18:57:15.190Z,12.43
2018-07-23T18:59:44.678Z,11.22
2018-07-23T19:02:14.862Z,8.44
2018-07-23T19:04:44.254Z,8.93
2018-07-23T19:07:13.678Z,11.05
2018-07-23T19:09:43.210Z,11.65
2018-07-23T19:12:13.076Z,10.08
2018-07-23T19:14:42.479Z,10.40
2018-07-23T19:17:13.316Z,8.23
2018-07-23T19:19:42.719Z,9.60
2018-07-23T19:22:12.118Z,9.10
2018-07-23T19:24:41.535Z,8.65
2018-07-23T19:27:10.973Z,8.63
2018-07-23T19:29:40.308Z,9.05
2018-07-23T19:32:09.711Z,9.03
2018-07-23T19:34:38.810Z,9.45
2018-07-23T19:37:08.214Z,8.78
2018-07-23T19:39:37.603Z,12.43
2018-07-23T19:42:07.098Z,10.90
2018-07-23T19:44:36.500Z,10.43
2018-07-23T19:47:05.986Z,8.03
2018-07-23T19:49:35.376Z,9.53
2018-07-23T19:52:04.778Z,14.30
2018-07-23T19:54:34.198Z,8.30
2018-07-23T19:57:03.585Z,9.03
2018-07-23T19:59:32.993Z,7.85
2018-07-23T20:02:02.400Z,11.67
2018-07-23T20:04:31.783Z,8.87
2018-07-23T20:07:01.171Z,9.20
2018-07-23T20:09:30.548Z,8.53
2018-07-23T20:11:59.959Z,9.30
2018-07-23T20:14:29.336Z,8.47
2018-07-23T20:16:58.482Z,9.80
2018-07-23T20:19:27.878Z,8.00
2018-07-23T20:21:57.252Z,8.53
2018-07-23T20:24:26.645Z,8.03
2018-07-23T20:26:56.032Z,8.43
2018-07-23T20:29:25.163Z,8.28
2018-07-23T20:31:54.563Z,8.73
2018-07-23T20:34:23.963Z,8.80
2018-07-23T20:36:53.365Z,10.70
2018-07-23T20:39:22.752Z,9.63
2018-07-23T20:41:52.166Z,8.67
2018-07-23T20:44:21.384Z,11.53
2018-07-23T20:46:50.470Z,10.40
2018-07-23T20:49:19.864Z,8.93
2018-07-23T20:51:49.255Z,11.70
2018-07-23T20:54:18.657Z,9.70
2018-07-23T20:56:48.125Z,8.70
2018-07-23T20:59:17.431Z,11.30
2018-07-23T21:01:46.814Z,8.97
2018-07-23T21:04:16.208Z,9.03
2018-07-23T21:06:45.609Z,11.20
2018-07-23T21:09:15.012Z,7.73
2018-07-23T21:11:44.400Z,10.77
2018-07-23T21:14:13.783Z,10.32
2018-07-23T21:16:43.167Z,9.80
2018-07-23T21:19:12.559Z,9.70
2018-07-23T21:21:41.952Z,10.30
2018-07-23T21:24:11.352Z,10.90
2018-07-23T21:26:40.734Z,10.17
2018-07-23T21:29:10.135Z,9.90
2018-07-23T21:31:39.527Z,8.43
2018-07-23T21:34:08.947Z,10.70
2018-07-23T21:36:38.340Z,12.03
2018-07-23T21:39:09.660Z,11.17
2018-07-23T21:41:39.071Z,8.97
2018-07-23T21:44:09.555Z,11.22
2018-07-23T21:46:38.940Z,9.97
2018-07-23T21:49:08.328Z,9.27
2018-07-23T21:51:37.719Z,10.43
2018-07-23T21:54:07.354Z,8.33
2018-07-23T21:56:36.747Z,11.50
2018-07-23T21:59:06.148Z,9.07
2018-07-23T22:01:35.532Z,9.53
2018-07-23T22:04:04.928Z,12.07
2018-07-23T22:06:34.310Z,8.70
2018-07-23T22:09:03.923Z,9.00
2018-07-23T22:11:33.348Z,11.60
2018-07-23T22:14:02.730Z,9.47
2018-07-23T22:16:32.104Z,10.27
2018-07-23T22:19:01.497Z,8.67
2018-07-23T22:21:30.865Z,10.07
2018-07-23T22:24:00.416Z,9.83
2018-07-23T22:26:29.822Z,9.03
2018-07-23T22:28:59.206Z,13.93
2018-07-23T22:31:28.583Z,10.13
2018-07-23T22:33:57.975Z,9.33
2018-07-23T22:36:27.364Z,8.55
2018-07-23T22:38:56.739Z,8.80
2018-07-23T22:41:26.124Z,10.80
2018-07-23T22:43:55.516Z,10.33
2018-07-23T22:46:24.638Z,9.20
2018-07-23T22:48:54.015Z,9.37
2018-07-23T22:51:23.147Z,9.37
2018-07-23T22:53:52.528Z,10.10
2018-07-23T22:56:21.953Z,9.63
2018-07-23T22:58:51.332Z,10.53
2018-07-23T23:01:21.051Z,11.57
2018-07-23T23:03:50.434Z,8.53
2018-07-23T23:06:19.819Z,10.27
2018-07-23T23:08:48.944Z,10.67
2018-07-23T23:11:18.355Z,8.90
2018-07-23T23:13:47.730Z,12.70
2018-07-23T23:16:17.136Z,13.85
2018-07-23T23:18:46.504Z,12.60
2018-07-23T23:21:15.895Z,12.65
2018-07-23T23:23:45.255Z,8.67
2018-07-23T23:26:14.641Z,9.27
2018-07-23T23:28:43.754Z,9.70
2018-07-23T23:31:13.147Z,8.83
2018-07-23T23:33:42.524Z,9.30
2018-07-23T23:36:11.899Z,10.20
2018-07-23T23:38:41.340Z,9.23
2018-07-23T23:41:10.475Z,10.43
2018-07-23T23:43:39.895Z,9.30
2018-07-23T23:46:09.283Z,9.83
2018-07-23T23:48:38.666Z,15.27
2018-07-23T23:51:08.052Z,10.27
2018-07-23T23:53:37.431Z,12.30
2018-07-23T23:56:06.857Z,10.10
2018-07-23T23:58:36.231Z,15.50
